createdAt,value
2023-02-21T00:02:05.027Z,99559.06
2023-02-21T00:04:53.003Z,99550.31
2023-02-21T00:07:39.546Z,99546.28
2023-02-21T00:10:26.139Z,99559.22
2023-02-21T00:13:12.486Z,99551.44
2023-02-21T00:15:58.563Z,99555.00
2023-02-21T00:18:44.604Z,99553.19
2023-02-21T00:21:31.865Z,99546.91
2023-02-21T00:24:18.090Z,99552.09
2023-02-21T00:27:04.495Z,99549.50
2023-02-21T00:29:50.590Z,99548.16
2023-02-21T00:32:36.575Z,99550.31
2023-02-21T00:35:23.162Z,99554.66
2023-02-21T00:38:11.100Z,99549.16
2023-02-21T00:40:57.393Z,99546.06
2023-02-21T00:43:46.974Z,99538.78
2023-02-21T00:46:33.225Z,99545.59
2023-02-21T00:49:19.246Z,99539.78
2023-02-21T00:52:05.278Z,99539.34
2023-02-21T00:54:52.733Z,99545.69
2023-02-21T00:57:38.829Z,99542.09
2023-02-21T01:00:35.518Z,99535.97
2023-02-21T01:03:21.532Z,99529.50
2023-02-21T01:06:07.650Z,99528.81
2023-02-21T01:08:54.098Z,99532.38
2023-02-21T01:11:41.385Z,99524.44
2023-02-21T01:14:28.476Z,99533.31
2023-02-21T01:17:14.932Z,99532.31
2023-02-21T01:20:01.442Z,99531.19
2023-02-21T01:22:48.255Z,99530.56
2023-02-21T01:25:34.920Z,99526.81
2023-02-21T01:28:22.836Z,99533.09
2023-02-21T01:31:09.094Z,99529.28
2023-02-21T01:33:56.769Z,99523.25
2023-02-21T01:36:42.757Z,99530.75
2023-02-21T01:39:29.379Z,99530.84
2023-02-21T01:42:15.848Z,99527.88
2023-02-21T01:45:04.443Z,99519.91
2023-02-21T01:47:51.538Z,99534.38
2023-02-21T01:50:39.594Z,99519.50
2023-02-21T01:53:28.719Z,99527.81
2023-02-21T01:56:15.836Z,99520.16
2023-02-21T01:59:02.090Z,99516.91
2023-02-21T02:01:53.743Z,99518.84
2023-02-21T02:04:39.944Z,99512.00
2023-02-21T02:07:26.247Z,99508.81
2023-02-21T02:10:12.326Z,99506.97
2023-02-21T02:12:54.431Z,99514.22
2023-02-21T02:15:38.738Z,99510.06
2023-02-21T02:18:31.451Z,99507.94
2023-02-21T02:21:36.424Z,99512.00
2023-02-21T02:24:32.830Z,99507.78
2023-02-21T02:27:38.145Z,99497.16
2023-02-21T02:30:52.438Z,99506.13
2023-02-21T02:33:59.590Z,99499.84
2023-02-21T02:36:31.342Z,99502.59
2023-02-21T02:39:04.546Z,99491.00
2023-02-21T02:41:43.205Z,99493.53
2023-02-21T02:44:15.182Z,99487.00
2023-02-21T02:46:44.926Z,99485.38
2023-02-21T02:49:16.010Z,99486.03
2023-02-21T02:51:46.818Z,99482.59
2023-02-21T02:54:15.418Z,99484.53
2023-02-21T02:56:44.068Z,99481.78
2023-02-21T02:59:14.404Z,99481.25
2023-02-21T03:01:58.140Z,99481.69
2023-02-21T03:04:48.638Z,99485.72
2023-02-21T03:07:22.837Z,99491.56
2023-02-21T03:09:57.906Z,99498.50
2023-02-21T03:12:34.102Z,99489.16
2023-02-21T03:15:05.931Z,99485.72
2023-02-21T03:17:39.612Z,99488.16
2023-02-21T03:20:09.324Z,99492.00
2023-02-21T03:22:39.413Z,99480.78
2023-02-21T03:25:09.310Z,99483.72
2023-02-21T03:27:39.458Z,99483.56
2023-02-21T03:30:09.769Z,99481.22
2023-02-21T03:32:40.363Z,99484.25
2023-02-21T03:35:09.415Z,99484.22
2023-02-21T03:37:41.241Z,99484.56
2023-02-21T03:40:12.377Z,99475.91
2023-02-21T03:42:41.033Z,99480.81
2023-02-21T03:45:10.550Z,99477.50
2023-02-21T03:47:39.258Z,99488.25
2023-02-21T03:50:08.452Z,99487.75
2023-02-21T03:52:37.033Z,99485.16
2023-02-21T03:55:08.098Z,99486.03
2023-02-21T03:57:36.778Z,99477.56
2023-02-21T04:00:06.259Z,99487.13
2023-02-21T04:02:35.061Z,99483.19
2023-02-21T04:05:04.036Z,99489.97
2023-02-21T04:07:32.657Z,99481.25
2023-02-21T04:10:01.305Z,99487.91
2023-02-21T04:12:31.312Z,99489.56
2023-02-21T04:14:59.913Z,99482.34
2023-02-21T04:17:28.587Z,99485.56
2023-02-21T04:19:57.212Z,99475.38
2023-02-21T04:22:25.831Z,99484.75
2023-02-21T04:24:54.453Z,99484.06
2023-02-21T04:27:23.051Z,99488.22
2023-02-21T04:29:53.047Z,99484.31
2023-02-21T04:32:21.687Z,99478.84
2023-02-21T04:34:50.432Z,99485.25
2023-02-21T04:37:19.069Z,99489.47
2023-02-21T04:39:47.724Z,99485.19
2023-02-21T04:42:16.456Z,99488.94
2023-02-21T04:44:55.021Z,99480.63
2023-02-21T04:47:29.593Z,99475.81
2023-02-21T04:49:58.639Z,99485.34
2023-02-21T04:52:27.503Z,99487.78
2023-02-21T04:54:56.085Z,99490.78
2023-02-21T04:57:24.781Z,99487.72
2023-02-21T04:59:58.144Z,99487.03
2023-02-21T05:02:26.924Z,99481.59
2023-02-21T05:04:56.889Z,99485.94
2023-02-21T05:07:25.548Z,99483.50
2023-02-21T05:09:54.218Z,99489.75
2023-02-21T05:12:22.780Z,99477.94
2023-02-21T05:14:51.385Z,99481.66
2023-02-21T05:17:19.978Z,99476.28
2023-02-21T05:19:48.738Z,99476.44
2023-02-21T05:22:20.344Z,99477.00
2023-02-21T05:24:49.258Z,99472.88
2023-02-21T05:27:19.192Z,99466.59
2023-02-21T05:29:48.635Z,99474.34
2023-02-21T05:32:17.373Z,99472.88
2023-02-21T05:34:47.683Z,99475.69
2023-02-21T05:37:21.023Z,99477.16
2023-02-21T05:39:50.088Z,99483.50
2023-02-21T05:42:18.700Z,99485.66
2023-02-21T05:44:47.489Z,99475.09
2023-02-21T05:47:16.539Z,99476.56
2023-02-21T05:49:45.347Z,99476.63
2023-02-21T05:52:15.746Z,99484.88
2023-02-21T05:54:45.729Z,99488.25
2023-02-21T05:57:14.349Z,99490.94
2023-02-21T05:59:43.568Z,99485.63
2023-02-21T06:02:12.151Z,99486.16
2023-02-21T06:04:40.747Z,99486.50
2023-02-21T06:07:09.391Z,99478.91
2023-02-21T06:09:37.974Z,99481.13
2023-02-21T06:12:08.296Z,99481.94
2023-02-21T06:14:36.858Z,99484.75
2023-02-21T06:17:05.484Z,99481.13
2023-02-21T06:19:34.054Z,99487.34
2023-02-21T06:22:02.618Z,99479.06
2023-02-21T06:24:31.250Z,99477.00
2023-02-21T06:26:59.912Z,99469.53
2023-02-21T06:29:29.878Z,99475.06
2023-02-21T06:31:59.102Z,99485.97
2023-02-21T06:34:28.360Z,99485.44
2023-02-21T06:36:57.117Z,99486.00
2023-02-21T06:39:25.787Z,99483.06
2023-02-21T06:41:54.382Z,99483.81
2023-02-21T06:44:23.080Z,99485.22
2023-02-21T06:46:54.764Z,99483.13
2023-02-21T06:49:23.320Z,99483.25
2023-02-21T06:51:52.009Z,99488.66
2023-02-21T06:54:20.577Z,99484.44
2023-02-21T06:56:49.177Z,99485.22
2023-02-21T06:59:17.811Z,99483.47
2023-02-21T07:01:46.404Z,99492.50
2023-02-21T07:04:16.405Z,99495.56
2023-02-21T07:06:45.067Z,99496.44
2023-02-21T07:09:14.404Z,99496.59
2023-02-21T07:11:44.303Z,99498.56
2023-02-21T07:14:12.940Z,99502.59
2023-02-21T07:16:41.533Z,99496.03
2023-02-21T07:19:10.343Z,99496.63
2023-02-21T07:21:40.306Z,99494.38
2023-02-21T07:24:08.992Z,99494.09
2023-02-21T07:26:38.332Z,99493.81
2023-02-21T07:29:07.633Z,99492.63
2023-02-21T07:31:36.416Z,99493.16
2023-02-21T07:34:05.074Z,99483.28
2023-02-21T07:36:33.722Z,99493.69
2023-02-21T07:39:03.682Z,99484.97
2023-02-21T07:41:32.323Z,99486.53
2023-02-21T07:44:00.944Z,99489.63
2023-02-21T07:46:30.028Z,99488.50
2023-02-21T07:48:58.821Z,99487.34
2023-02-21T07:51:29.562Z,99487.72
2023-02-21T07:53:58.340Z,99492.97
2023-02-21T07:56:28.384Z,99483.94
2023-02-21T07:58:57.004Z,99500.50
2023-02-21T08:01:26.808Z,99494.03
2023-02-21T08:03:55.496Z,99488.47
2023-02-21T08:06:24.183Z,99484.38
2023-02-21T08:08:52.737Z,99490.72
2023-02-21T08:11:21.346Z,99475.19
2023-02-21T08:13:51.354Z,99487.75
2023-02-21T08:16:20.032Z,99496.09
2023-02-21T08:18:50.688Z,99499.41
2023-02-21T08:21:19.294Z,99497.09
2023-02-21T08:23:47.918Z,99500.34
2023-02-21T08:26:16.545Z,99493.63
2023-02-21T08:28:45.195Z,99489.44
2023-02-21T08:31:15.564Z,99491.78
2023-02-21T08:33:45.245Z,99494.72
2023-02-21T08:36:13.816Z,99492.66
2023-02-21T08:38:42.398Z,99494.78
2023-02-21T08:41:11.043Z,99494.19
2023-02-21T08:43:39.662Z,99484.31
2023-02-21T08:46:09.097Z,99487.56
2023-02-21T08:48:39.027Z,99494.88
2023-02-21T08:51:07.604Z,99489.03
2023-02-21T08:53:36.174Z,99488.09
2023-02-21T08:56:04.967Z,99485.81
2023-02-21T08:58:33.537Z,99480.66
2023-02-21T09:01:02.212Z,99490.84
2023-02-21T09:03:30.953Z,99481.63
2023-02-21T09:06:02.730Z,99476.09
2023-02-21T09:08:31.874Z,99480.44
2023-02-21T09:11:01.229Z,99475.53
2023-02-21T09:13:30.285Z,99477.78
2023-02-21T09:15:58.909Z,99483.78
2023-02-21T09:18:29.512Z,99481.47
2023-02-21T09:20:59.244Z,99474.59
2023-02-21T09:23:33.668Z,99473.28
2023-02-21T09:26:02.339Z,99466.69
2023-02-21T09:28:31.599Z,99467.19
2023-02-21T09:31:00.151Z,99473.94
2023-02-21T09:33:30.881Z,99475.38
2023-02-21T09:35:59.487Z,99465.75
2023-02-21T09:38:29.464Z,99461.13
2023-02-21T09:41:00.917Z,99462.69
2023-02-21T09:43:33.507Z,99458.72
2023-02-21T09:46:04.951Z,99451.28
2023-02-21T09:48:33.593Z,99452.75
2023-02-21T09:51:05.728Z,99456.25
2023-02-21T09:53:40.063Z,99453.22
2023-02-21T09:56:12.515Z,99444.81
2023-02-21T09:58:44.345Z,99456.38
2023-02-21T10:01:23.803Z,99446.31
2023-02-21T10:03:58.003Z,99447.22
2023-02-21T10:06:35.956Z,99441.00
2023-02-21T10:09:09.675Z,99443.13
2023-02-21T10:11:44.686Z,99435.22
2023-02-21T10:14:20.550Z,99431.16
2023-02-21T10:16:53.416Z,99434.94
2023-02-21T10:19:26.086Z,99430.78
2023-02-21T10:21:58.666Z,99425.53
2023-02-21T10:24:29.646Z,99426.59
2023-02-21T10:27:01.003Z,99426.97
2023-02-21T10:29:37.296Z,99422.22
2023-02-21T10:32:07.162Z,99427.56
2023-02-21T10:34:36.017Z,99427.03
2023-02-21T10:37:12.588Z,99427.09
2023-02-21T10:39:46.185Z,99422.13
2023-02-21T10:42:22.695Z,99420.19
2023-02-21T10:44:51.584Z,99426.03
2023-02-21T10:47:22.049Z,99420.22
2023-02-21T10:49:55.028Z,99417.47
2023-02-21T10:52:23.727Z,99411.06
2023-02-21T10:55:05.261Z,99409.09
2023-02-21T10:57:35.104Z,99404.91
2023-02-21T11:00:10.451Z,99401.13
2023-02-21T11:02:41.108Z,99404.97
2023-02-21T11:05:13.263Z,99398.97
2023-02-21T11:07:43.249Z,99392.09
2023-02-21T11:10:32.863Z,99381.81
2023-02-21T11:13:16.100Z,99375.50
2023-02-21T11:15:45.175Z,99376.66
2023-02-21T11:18:18.700Z,99374.56
2023-02-21T11:20:47.687Z,99374.69
2023-02-21T11:23:21.791Z,99366.34
2023-02-21T11:25:55.890Z,99356.50
2023-02-21T11:28:25.053Z,99353.03
2023-02-21T11:31:08.644Z,99345.59
2023-02-21T11:33:38.833Z,99340.88
2023-02-21T11:36:10.652Z,99339.50
2023-02-21T11:38:41.428Z,99335.72
2023-02-21T11:41:23.638Z,99329.69
2023-02-21T11:43:53.124Z,99325.88
2023-02-21T11:46:34.166Z,99324.69
2023-02-21T11:49:04.707Z,99314.81
2023-02-21T11:51:41.721Z,99318.31
2023-02-21T11:54:10.534Z,99313.31
2023-02-21T11:56:48.641Z,99300.56
2023-02-21T11:59:25.326Z,99288.13
2023-02-21T12:02:05.004Z,99286.28
2023-02-21T12:04:43.896Z,99284.34
2023-02-21T12:07:18.276Z,99275.00
2023-02-21T12:09:53.124Z,99267.44
2023-02-21T12:12:42.092Z,99257.13
2023-02-21T12:15:19.867Z,99264.91
2023-02-21T12:17:59.108Z,99256.56
2023-02-21T12:20:45.619Z,99251.25
2023-02-21T12:23:19.211Z,99234.31
2023-02-21T12:26:03.377Z,99241.03
2023-02-21T12:28:41.834Z,99234.19
2023-02-21T12:31:21.806Z,99228.88
2023-02-21T12:33:57.237Z,99222.69
2023-02-21T12:36:46.195Z,99221.50
2023-02-21T12:39:28.316Z,99214.78
2023-02-21T12:42:06.941Z,99213.59
2023-02-21T12:44:42.934Z,99202.59
2023-02-21T12:47:14.734Z,99193.84
2023-02-21T12:49:47.083Z,99196.56
2023-02-21T12:52:17.615Z,99189.34
2023-02-21T12:54:49.591Z,99180.50
2023-02-21T12:57:22.508Z,99174.34
2023-02-21T12:59:59.131Z,99164.34
2023-02-21T13:02:34.915Z,99167.38
2023-02-21T13:05:07.616Z,99159.78
2023-02-21T13:07:38.483Z,99151.78
2023-02-21T13:10:13.962Z,99146.00
2023-02-21T13:12:46.058Z,99148.13
2023-02-21T13:15:21.991Z,99139.16
2023-02-21T13:17:56.229Z,99131.31
2023-02-21T13:20:26.407Z,99126.44
2023-02-21T13:23:43.257Z,99124.91
2023-02-21T13:26:25.303Z,99113.41
2023-02-21T13:28:54.875Z,99107.19
2023-02-21T13:31:26.338Z,99107.28
2023-02-21T13:33:57.409Z,99106.00
2023-02-21T13:36:28.662Z,99102.84
2023-02-21T13:39:00.030Z,99104.13
2023-02-21T13:41:31.118Z,99093.31
2023-02-21T13:44:01.157Z,99090.19
2023-02-21T13:47:15.653Z,99084.72
2023-02-21T13:49:54.373Z,99073.59
2023-02-21T13:52:57.899Z,99077.34
2023-02-21T13:55:28.264Z,99070.72
2023-02-21T13:58:39.317Z,99058.34
2023-02-21T14:01:22.502Z,99065.69
2023-02-21T14:03:53.429Z,99058.75
2023-02-21T14:06:34.905Z,99046.25
2023-02-21T14:09:06.878Z,99047.00
2023-02-21T14:11:39.430Z,99044.34
2023-02-21T14:14:22.103Z,99044.00
2023-02-21T14:16:54.533Z,99035.81
2023-02-21T14:19:26.914Z,99032.84
2023-02-21T14:22:03.346Z,99039.09
2023-02-21T14:24:33.924Z,99029.06
2023-02-21T14:27:05.390Z,99030.88
2023-02-21T14:29:38.786Z,99035.03
2023-02-21T14:32:28.111Z,99019.41
2023-02-21T14:34:58.233Z,99014.69
2023-02-21T14:37:40.046Z,99009.41
2023-02-21T14:40:21.415Z,99004.38
2023-02-21T14:43:02.440Z,99011.69
2023-02-21T14:45:39.214Z,99008.97
2023-02-21T14:48:18.616Z,99001.81
2023-02-21T14:51:09.161Z,99003.97
2023-02-21T14:53:56.947Z,99001.84
2023-02-21T14:56:41.486Z,99001.22
2023-02-21T14:59:26.373Z,98991.66
2023-02-21T15:02:04.279Z,98985.19
2023-02-21T15:04:37.241Z,98984.00
2023-02-21T15:07:14.698Z,98985.28
2023-02-21T15:09:44.769Z,98978.09
2023-02-21T15:12:17.275Z,98971.72
2023-02-21T15:14:49.794Z,98972.69
2023-02-21T15:17:21.790Z,98977.84
2023-02-21T15:20:05.570Z,98972.97
2023-02-21T15:22:34.194Z,98979.69
2023-02-21T15:25:24.771Z,98970.41
2023-02-21T15:27:56.168Z,98973.28
2023-02-21T15:30:27.594Z,98967.38
2023-02-21T15:32:59.435Z,98966.25
2023-02-21T15:35:33.542Z,98959.88
2023-02-21T15:38:05.991Z,98953.72
2023-02-21T15:40:36.107Z,98954.50
2023-02-21T15:43:05.311Z,98952.69
2023-02-21T15:45:37.728Z,98951.66
2023-02-21T15:48:06.377Z,98950.31
2023-02-21T15:50:37.667Z,98955.09
2023-02-21T15:53:14.285Z,98955.09
2023-02-21T15:55:45.437Z,98946.16
2023-02-21T15:58:17.754Z,98943.50
2023-02-21T16:00:47.326Z,98937.16
2023-02-21T16:03:30.360Z,98942.88
2023-02-21T16:06:13.482Z,98943.09
2023-02-21T16:08:53.284Z,98938.09
2023-02-21T16:11:23.285Z,98942.22
2023-02-21T16:13:51.888Z,98945.81
2023-02-21T16:16:21.695Z,98939.41
2023-02-21T16:18:56.948Z,98930.56
2023-02-21T16:21:27.954Z,98935.31
2023-02-21T16:23:56.951Z,98933.59
2023-02-21T16:26:28.392Z,98932.94
2023-02-21T16:28:59.963Z,98935.84
2023-02-21T16:31:31.226Z,98946.38
2023-02-21T16:33:59.992Z,98941.81
2023-02-21T16:36:32.525Z,98937.16
2023-02-21T16:39:01.155Z,98936.00
2023-02-21T16:41:31.112Z,98939.00
2023-02-21T16:43:59.663Z,98943.09
2023-02-21T16:46:30.314Z,98943.09
2023-02-21T16:48:59.934Z,98943.81
2023-02-21T16:51:33.612Z,98940.13
2023-02-21T16:54:03.147Z,98941.03
2023-02-21T16:56:33.287Z,98949.00
2023-02-21T16:59:02.363Z,98944.78
2023-02-21T17:01:34.218Z,98945.81
2023-02-21T17:04:04.956Z,98951.41
2023-02-21T17:06:34.989Z,98945.59
2023-02-21T17:09:03.694Z,98942.38
2023-02-21T17:11:33.672Z,98948.53
2023-02-21T17:14:02.326Z,98959.50
2023-02-21T17:16:30.933Z,98953.53
2023-02-21T17:18:59.611Z,98946.78
2023-02-21T17:21:28.264Z,98949.50
2023-02-21T17:23:57.525Z,98956.78
2023-02-21T17:26:26.217Z,98965.56
2023-02-21T17:28:56.270Z,98961.97
2023-02-21T17:31:24.902Z,98958.88
2023-02-21T17:33:54.551Z,98967.97
2023-02-21T17:36:25.235Z,98967.03
2023-02-21T17:38:54.019Z,98957.88
2023-02-21T17:41:22.803Z,98962.38
2023-02-21T17:43:51.479Z,98966.13
2023-02-21T17:46:22.045Z,98976.31
2023-02-21T17:48:50.949Z,98973.75
2023-02-21T17:51:24.558Z,98981.50
2023-02-21T17:53:53.439Z,98978.03
2023-02-21T17:56:24.378Z,98981.75
2023-02-21T17:58:52.989Z,98978.53
2023-02-21T18:01:23.072Z,98982.84
2023-02-21T18:03:51.979Z,98983.72
2023-02-21T18:06:21.949Z,98980.34
2023-02-21T18:08:50.988Z,98986.03
2023-02-21T18:11:20.141Z,98979.31
2023-02-21T18:13:49.054Z,98980.97
2023-02-21T18:16:17.906Z,98980.06
2023-02-21T18:18:47.898Z,98984.72
2023-02-21T18:21:17.198Z,98984.38
2023-02-21T18:23:47.013Z,98983.00
2023-02-21T18:26:15.992Z,98981.41
2023-02-21T18:28:44.806Z,98984.06
2023-02-21T18:31:16.566Z,98983.50
2023-02-21T18:33:45.751Z,98992.19
2023-02-21T18:36:15.845Z,98989.47
2023-02-21T18:38:44.505Z,98986.66
2023-02-21T18:41:13.657Z,98989.09
2023-02-21T18:43:44.015Z,98987.72
2023-02-21T18:46:14.445Z,98997.97
2023-02-21T18:48:44.143Z,98989.75
2023-02-21T18:51:16.131Z,98987.75
2023-02-21T18:53:45.389Z,98987.59
2023-02-21T18:56:15.524Z,98993.22
2023-02-21T18:58:44.155Z,98989.03
2023-02-21T19:01:15.348Z,98985.84
2023-02-21T19:03:44.399Z,98985.84
2023-02-21T19:06:15.327Z,98995.69
2023-02-21T19:08:44.954Z,98995.69
2023-02-21T19:11:15.111Z,98985.28
2023-02-21T19:13:47.171Z,98986.28
2023-02-21T19:16:15.841Z,98991.31
2023-02-21T19:18:44.557Z,99002.38
2023-02-21T19:21:13.518Z,99000.19
2023-02-21T19:23:44.509Z,98995.38
2023-02-21T19:26:13.133Z,98989.56
2023-02-21T19:28:41.918Z,98998.81
2023-02-21T19:31:11.417Z,98999.22
2023-02-21T19:33:40.323Z,98996.41
2023-02-21T19:36:10.057Z,98989.63
2023-02-21T19:38:38.884Z,98991.59
2023-02-21T19:41:09.671Z,98995.03
2023-02-21T19:43:38.394Z,98997.44
2023-02-21T19:46:07.367Z,98992.81
2023-02-21T19:48:36.074Z,98991.03
2023-02-21T19:51:05.133Z,98993.41
2023-02-21T19:53:33.872Z,98998.66
2023-02-21T19:56:02.981Z,98992.63
2023-02-21T19:58:33.004Z,99001.44
2023-02-21T20:01:01.724Z,98995.84
2023-02-21T20:03:30.443Z,98999.63
2023-02-21T20:05:59.071Z,98999.41
2023-02-21T20:08:29.220Z,98985.94
2023-02-21T20:10:58.030Z,98993.34
2023-02-21T20:13:26.671Z,98995.72
2023-02-21T20:15:56.710Z,99000.97
2023-02-21T20:18:25.368Z,98998.53
2023-02-21T20:20:54.022Z,99001.28
2023-02-21T20:23:23.163Z,99000.50
2023-02-21T20:25:51.960Z,99001.50
2023-02-21T20:28:20.587Z,99006.13
2023-02-21T20:30:49.352Z,99011.34
2023-02-21T20:33:20.564Z,99016.72
2023-02-21T20:35:49.272Z,99021.19
2023-02-21T20:38:17.880Z,99016.94
2023-02-21T20:40:46.974Z,99012.66
2023-02-21T20:43:15.652Z,99016.06
2023-02-21T20:45:44.557Z,99013.91
2023-02-21T20:48:13.302Z,99020.75
2023-02-21T20:50:43.391Z,99015.75
2023-02-21T20:53:12.143Z,99005.47
2023-02-21T20:55:40.805Z,99011.25
2023-02-21T20:58:12.437Z,99015.03
2023-02-21T21:00:41.209Z,99013.03
2023-02-21T21:03:14.488Z,99013.19
2023-02-21T21:05:44.941Z,99010.38
2023-02-21T21:08:13.680Z,99007.56
2023-02-21T21:10:48.440Z,99007.97
2023-02-21T21:13:17.609Z,99006.94
2023-02-21T21:15:46.633Z,99007.19
2023-02-21T21:18:15.332Z,99004.53
2023-02-21T21:20:45.342Z,99007.97
2023-02-21T21:23:13.997Z,99016.16
2023-02-21T21:25:43.092Z,99016.91
2023-02-21T21:28:13.334Z,99005.25
2023-02-21T21:30:42.640Z,99004.88
2023-02-21T21:33:11.430Z,99014.25
2023-02-21T21:35:40.096Z,99008.63
2023-02-21T21:38:10.553Z,99004.97
2023-02-21T21:40:39.411Z,99001.56
2023-02-21T21:43:12.185Z,99001.72
2023-02-21T21:45:44.433Z,99001.06
2023-02-21T21:48:14.922Z,99003.72
2023-02-21T21:50:43.569Z,99007.88
2023-02-21T21:53:13.705Z,99003.84
2023-02-21T21:55:42.366Z,98999.69
2023-02-21T21:58:13.827Z,99010.06
2023-02-21T22:00:43.045Z,99002.75
2023-02-21T22:03:14.300Z,99005.56
2023-02-21T22:05:44.094Z,99006.72
2023-02-21T22:08:16.634Z,99005.94
2023-02-21T22:10:46.182Z,99004.91
2023-02-21T22:13:15.019Z,99010.28
2023-02-21T22:15:44.678Z,99013.06
2023-02-21T22:18:17.324Z,99004.28
2023-02-21T22:20:49.581Z,99001.34
2023-02-21T22:23:22.553Z,99005.72
2023-02-21T22:25:51.291Z,99002.88
2023-02-21T22:28:19.900Z,99004.13
2023-02-21T22:30:48.531Z,99001.66
2023-02-21T22:33:20.345Z,99000.66
2023-02-21T22:35:49.135Z,98996.19
2023-02-21T22:38:19.303Z,98995.91
2023-02-21T22:40:48.002Z,98995.59
2023-02-21T22:43:19.907Z,98993.97
2023-02-21T22:45:50.004Z,98993.28
2023-02-21T22:48:20.895Z,98990.56
2023-02-21T22:50:49.993Z,98991.94
2023-02-21T22:53:21.196Z,98988.44
2023-02-21T22:55:52.471Z,98995.00
2023-02-21T22:58:21.695Z,98986.34
2023-02-21T23:00:50.949Z,98984.16
2023-02-21T23:03:19.605Z,98988.31
2023-02-21T23:05:50.491Z,98982.56
2023-02-21T23:08:22.571Z,98980.16
2023-02-21T23:10:51.493Z,98980.22
2023-02-21T23:13:22.926Z,98983.84
2023-02-21T23:15:54.722Z,98984.53
2023-02-21T23:18:26.061Z,98986.44
2023-02-21T23:20:56.386Z,98984.91
2023-02-21T23:23:28.438Z,98986.81
2023-02-21T23:25:58.960Z,98983.59
2023-02-21T23:28:30.014Z,98984.66
2023-02-21T23:30:59.197Z,98985.03
2023-02-21T23:33:29.584Z,98984.44
2023-02-21T23:35:58.651Z,98986.66
2023-02-21T23:38:28.990Z,98981.56
2023-02-21T23:41:01.759Z,98981.38
2023-02-21T23:43:35.685Z,98976.00
2023-02-21T23:46:06.448Z,98984.94
2023-02-21T23:48:35.033Z,98984.25
2023-02-21T23:51:03.610Z,98975.19
2023-02-21T23:53:33.735Z,98973.69
2023-02-21T23:56:02.478Z,98976.28
2023-02-21T23:58:32.390Z,98970.72
